Time;durP1;ratioP1;P1;durP2;ratioP2;P2;SDS_P1;SDS_P2;PMS_P1;PMS_P2;Temp;Humidity;BMP_temperature;BMP_pressure;BME280_temperature;BME280_humidity;BME280_pressure;Samples;Min_cycle;Max_cycle;Signal;HPM_P1;HPM_P2
2024/04/16 00:02:20;;;;;;;1.40;0.90;;;23.00;46.30;;;;;;5429310;26;20027;-62
2024/04/16 00:04:45;;;;;;;2.00;1.00;;;23.00;46.30;;;;;;5427208;26;20015;-62
2024/04/16 00:07:11;;;;;;;2.67;0.90;;;23.00;46.30;;;;;;5429328;26;20079;-62
2024/04/16 00:09:36;;;;;;;2.47;1.17;;;23.00;46.30;;;;;;5431009;26;19998;-62
2024/04/16 00:12:02;;;;;;;1.52;0.98;;;23.00;46.30;;;;;;5425229;26;19999;-62
2024/04/16 00:14:28;;;;;;;1.52;1.00;;;23.00;46.30;;;;;;5431117;26;20011;-62
2024/04/16 00:16:53;;;;;;;2.47;1.17;;;23.00;46.30;;;;;;5428361;26;20004;-62
2024/04/16 00:19:19;;;;;;;1.65;0.98;;;23.00;46.30;;;;;;5427493;26;20007;-62
2024/04/16 00:21:45;;;;;;;2.08;1.00;;;23.00;46.30;;;;;;5426817;26;20067;-60
2024/04/16 00:24:10;;;;;;;2.08;1.00;;;23.00;46.30;;;;;;5425452;26;20401;-60
2024/04/16 00:26:36;;;;;;;1.70;1.00;;;23.00;46.30;;;;;;5428095;26;20043;-61
2024/04/16 00:29:01;;;;;;;1.50;0.90;;;23.00;46.30;;;;;;5428779;26;20347;-61
2024/04/16 00:31:27;;;;;;;1.48;0.90;;;23.00;46.30;;;;;;5427614;26;20072;-61
2024/04/16 00:33:52;;;;;;;1.67;1.00;;;22.90;46.20;;;;;;5425211;26;20071;-61
2024/04/16 00:36:18;;;;;;;1.30;0.73;;;23.00;46.30;;;;;;5426951;26;20007;-61
2024/04/16 00:38:44;;;;;;;1.20;0.77;;;22.90;46.20;;;;;;5424990;26;21080;-60
2024/04/16 00:41:09;;;;;;;2.38;1.00;;;22.90;46.20;;;;;;5427801;26;19995;-62
2024/04/16 00:43:35;;;;;;;2.25;0.93;;;22.90;46.30;;;;;;5430608;26;20010;-62
2024/04/16 00:46:01;;;;;;;1.83;1.02;;;22.90;46.20;;;;;;5429513;26;20007;-62
2024/04/16 00:48:28;;;;;;;1.55;1.00;;;22.90;46.20;;;;;;5433086;26;19999;-62
2024/04/16 00:50:55;;;;;;;1.40;0.82;;;22.90;46.20;;;;;;5428186;26;20069;-61
2024/04/16 00:53:23;;;;;;;2.20;1.00;;;22.90;46.30;;;;;;5428288;26;20186;-60
2024/04/16 00:55:50;;;;;;;1.98;0.88;;;22.90;46.20;;;;;;5432664;26;19995;-61
2024/04/16 00:58:18;;;;;;;1.83;1.02;;;22.90;46.20;;;;;;5439455;26;20018;-61
2024/04/16 01:00:46;;;;;;;1.40;0.90;;;22.90;46.30;;;;;;5430380;26;20474;-61
2024/04/16 01:03:12;;;;;;;1.13;0.87;;;22.90;46.30;;;;;;5434415;26;20084;-61
2024/04/16 01:05:40;;;;;;;1.30;0.80;;;22.90;46.30;;;;;;5432521;26;20011;-61
2024/04/16 01:08:08;;;;;;;1.58;0.80;;;22.90;46.30;;;;;;5427304;26;20003;-61
2024/04/16 01:10:41;;;;;;;1.20;0.77;;;22.90;46.30;;;;;;5430285;26;20014;-60
2024/04/16 01:13:10;;;;;;;1.40;0.90;;;22.90;46.30;;;;;;5423710;26;20015;-61
2024/04/16 01:15:36;;;;;;;1.50;0.75;;;22.80;46.20;;;;;;5428116;26;20339;-61
2024/04/16 01:18:03;;;;;;;1.38;0.80;;;22.90;46.30;;;;;;5435368;26;20039;-61
2024/04/16 01:20:29;;;;;;;2.15;1.08;;;22.80;46.20;;;;;;5429218;26;20018;-60
2024/04/16 01:22:55;;;;;;;1.73;0.80;;;22.80;46.20;;;;;;5430576;26;20491;-61
2024/04/16 01:25:20;;;;;;;1.42;0.90;;;22.80;46.20;;;;;;5430180;26;20000;-61
2024/04/16 01:27:46;;;;;;;1.80;0.95;;;22.80;46.20;;;;;;5427755;26;20127;-61
2024/04/16 01:30:12;;;;;;;1.65;0.90;;;22.90;46.30;;;;;;5429571;26;20003;-61
2024/04/16 01:32:37;;;;;;;1.10;0.70;;;22.80;46.20;;;;;;5427412;26;20406;-61
2024/04/16 01:35:03;;;;;;;1.88;0.80;;;22.80;46.20;;;;;;5429396;26;20003;-61
2024/04/16 01:37:29;;;;;;;1.55;0.85;;;22.80;46.20;;;;;;5431577;26;20003;-61
2024/04/16 01:39:55;;;;;;;0.93;0.65;;;22.80;46.20;;;;;;5431532;26;20040;-62
2024/04/16 01:42:20;;;;;;;1.55;1.00;;;22.70;46.20;;;;;;5430889;26;19995;-62
2024/04/16 01:44:49;;;;;;;1.33;0.80;;;22.80;46.20;;;;;;5431571;26;19999;-62
2024/04/16 01:47:15;;;;;;;1.45;0.80;;;22.80;46.20;;;;;;5427549;26;19999;-62
2024/04/16 01:49:41;;;;;;;1.05;0.90;;;22.80;46.20;;;;;;5433328;26;20011;-62
2024/04/16 01:52:06;;;;;;;1.25;0.80;;;22.80;46.20;;;;;;5433721;26;20405;-62
2024/04/16 01:54:32;;;;;;;1.63;0.90;;;22.70;46.20;;;;;;5431084;26;20000;-62
2024/04/16 01:56:57;;;;;;;1.50;0.98;;;22.70;46.20;;;;;;5428669;26;20017;-62
2024/04/16 01:59:23;;;;;;;1.65;0.82;;;22.80;46.30;;;;;;5429041;26;20042;-62
2024/04/16 02:01:49;;;;;;;1.67;0.80;;;22.70;46.20;;;;;;5425527;26;20003;-62
2024/04/16 02:04:14;;;;;;;1.30;0.80;;;22.70;46.20;;;;;;5431758;26;20005;-61
2024/04/16 02:06:40;;;;;;;1.55;0.90;;;22.70;46.20;;;;;;5430819;26;20532;-62
2024/04/16 02:09:05;;;;;;;1.05;0.70;;;22.70;46.20;;;;;;5428894;26;20010;-62
2024/04/16 02:11:31;;;;;;;1.50;0.80;;;22.70;46.20;;;;;;5429460;26;20312;-61
2024/04/16 02:13:57;;;;;;;1.20;0.70;;;22.70;46.20;;;;;;5427281;26;19999;-62
2024/04/16 02:16:22;;;;;;;1.30;0.80;;;22.70;46.20;;;;;;5429397;26;20006;-62
2024/04/16 02:18:48;;;;;;;0.88;0.77;;;22.70;46.20;;;;;;5428721;26;20041;-61
2024/04/16 02:21:13;;;;;;;1.10;0.70;;;22.70;46.20;;;;;;5428712;26;20005;-61
2024/04/16 02:23:40;;;;;;;1.33;0.85;;;22.70;46.20;;;;;;5424784;26;20009;-61
2024/04/16 02:26:06;;;;;;;1.30;0.80;;;22.60;46.10;;;;;;5430712;26;20539;-62
2024/04/16 02:28:32;;;;;;;1.17;0.80;;;22.70;46.20;;;;;;5427226;26;20007;-62
2024/04/16 02:30:58;;;;;;;0.98;0.80;;;22.70;46.20;;;;;;5429733;26;20031;-62
2024/04/16 02:33:23;;;;;;;1.23;0.75;;;22.60;46.10;;;;;;5435158;26;20080;-61
2024/04/16 02:35:49;;;;;;;0.88;0.70;;;22.70;46.20;;;;;;5426570;26;20076;-61
2024/04/16 02:38:15;;;;;;;1.17;0.80;;;22.70;46.20;;;;;;5427870;26;20000;-61
2024/04/16 02:40:40;;;;;;;0.82;0.70;;;22.60;46.10;;;;;;5429140;26;20048;-61
2024/04/16 02:43:06;;;;;;;0.93;0.70;;;22.60;46.10;;;;;;5427388;26;20003;-61
2024/04/16 02:45:32;;;;;;;0.88;0.63;;;22.60;46.20;;;;;;5429402;26;20342;-61
2024/04/16 02:47:57;;;;;;;1.25;0.80;;;22.60;46.10;;;;;;5427210;26;20422;-61
2024/04/16 02:50:23;;;;;;;0.73;0.70;;;22.60;46.10;;;;;;5430564;26;20125;-61
2024/04/16 02:52:49;;;;;;;1.27;0.80;;;22.60;46.10;;;;;;5428512;26;20000;-60
2024/04/16 02:55:19;;;;;;;0.82;0.60;;;22.60;46.10;;;;;;5425480;26;20485;-60
2024/04/16 02:57:45;;;;;;;0.73;0.65;;;22.60;46.10;;;;;;5421625;26;20051;-60
2024/04/16 03:00:12;;;;;;;1.30;0.70;;;22.60;46.10;;;;;;5425481;26;20014;-62
2024/04/16 03:02:39;;;;;;;1.33;0.65;;;22.60;46.10;;;;;;5432330;26;20331;-62
2024/04/16 03:05:04;;;;;;;1.45;0.70;;;22.60;46.10;;;;;;5426627;26;20008;-62
2024/04/16 03:07:30;;;;;;;2.42;0.90;;;22.60;46.70;;;;;;5431411;26;20002;-62
2024/04/16 03:09:56;;;;;;;1.48;0.73;;;22.60;46.10;;;;;;5428190;26;20003;-62
2024/04/16 03:12:22;;;;;;;1.85;0.80;;;22.60;46.10;;;;;;5426761;26;19999;-62
2024/04/16 03:14:51;;;;;;;1.60;0.70;;;22.60;46.10;;;;;;5422857;26;20021;-62
2024/04/16 03:17:17;;;;;;;1.10;0.70;;;22.60;46.10;;;;;;5431261;26;20014;-62
2024/04/16 03:19:42;;;;;;;1.33;0.80;;;22.60;46.10;;;;;;5430251;26;19994;-62
2024/04/16 03:22:08;;;;;;;1.45;0.80;;;22.50;46.10;;;;;;5429379;26;19999;-62
2024/04/16 03:24:33;;;;;;;1.48;0.80;;;22.50;46.10;;;;;;5435622;26;20014;-62
2024/04/16 03:26:59;;;;;;;1.02;0.63;;;22.50;46.10;;;;;;5427911;26;20011;-62
2024/04/16 03:29:24;;;;;;;1.48;0.70;;;22.50;46.10;;;;;;5423805;26;20007;-62
2024/04/16 03:31:50;;;;;;;2.00;0.70;;;22.50;46.10;;;;;;5425152;26;19995;-63
2024/04/16 03:34:16;;;;;;;1.02;0.68;;;22.50;46.10;;;;;;5431373;26;20009;-62
2024/04/16 03:36:41;;;;;;;0.98;0.60;;;22.50;46.10;;;;;;5429944;26;19999;-62
2024/04/16 03:39:07;;;;;;;1.00;0.70;;;22.50;46.10;;;;;;5428576;26;19994;-62
2024/04/16 03:41:33;;;;;;;1.02;0.80;;;22.50;46.20;;;;;;5428940;26;20013;-62
2024/04/16 03:43:58;;;;;;;1.40;0.90;;;22.50;46.20;;;;;;5423741;26;19995;-62
2024/04/16 03:46:24;;;;;;;1.25;0.70;;;22.50;46.20;;;;;;5426656;26;20036;-62
2024/04/16 03:48:49;;;;;;;1.58;0.73;;;22.50;46.20;;;;;;5430180;26;20007;-62
2024/04/16 03:51:15;;;;;;;1.02;0.60;;;22.50;46.20;;;;;;5430159;26;19999;-62
2024/04/16 03:53:41;;;;;;;0.75;0.60;;;22.50;46.20;;;;;;5429373;26;20524;-62
2024/04/16 03:56:06;;;;;;;1.40;0.70;;;22.50;46.20;;;;;;5427907;26;20011;-63
2024/04/16 03:58:34;;;;;;;1.23;0.70;;;22.50;46.20;;;;;;5423257;26;20360;-63
2024/04/16 04:01:00;;;;;;;0.98;0.65;;;22.50;46.10;;;;;;5429334;26;20017;-63
2024/04/16 04:03:30;;;;;;;1.17;0.68;;;22.40;46.60;;;;;;5425665;26;20003;-62
2024/04/16 04:05:55;;;;;;;0.90;0.60;;;22.40;46.00;;;;;;5429433;26;19999;-62
2024/04/16 04:08:21;;;;;;;1.10;0.73;;;22.40;45.90;;;;;;5425009;26;20085;-62
2024/04/16 04:10:47;;;;;;;0.90;0.60;;;22.40;45.80;;;;;;5426929;26;20067;-62
2024/04/16 04:13:12;;;;;;;1.10;0.70;;;22.40;45.70;;;;;;5425886;26;20011;-62
2024/04/16 04:15:38;;;;;;;1.02;0.70;;;22.40;45.70;;;;;;5426376;26;20000;-62
2024/04/16 04:18:05;;;;;;;0.80;0.60;;;22.40;45.70;;;;;;5423237;26;20007;-62
2024/04/16 04:20:31;;;;;;;0.73;0.52;;;22.40;45.70;;;;;;5428445;26;20004;-61
2024/04/16 04:22:56;;;;;;;0.90;0.63;;;22.40;45.70;;;;;;5427978;26;20004;-60
2024/04/16 04:25:22;;;;;;;0.80;0.70;;;22.40;45.80;;;;;;5428741;26;20004;-60
2024/04/16 04:27:48;;;;;;;1.58;0.73;;;22.30;45.70;;;;;;5431431;26;20588;-60
2024/04/16 04:30:13;;;;;;;0.77;0.63;;;22.30;45.70;;;;;;5424137;26;20447;-60
2024/04/16 04:32:39;;;;;;;0.93;0.60;;;22.30;45.70;;;;;;5426033;26;19998;-61
2024/04/16 04:35:06;;;;;;;0.80;0.70;;;22.30;46.20;;;;;;5428967;26;20447;-60
2024/04/16 04:37:32;;;;;;;1.00;0.70;;;22.30;45.70;;;;;;5426539;26;20074;-61
2024/04/16 04:39:58;;;;;;;0.65;0.60;;;22.30;45.70;;;;;;5427689;26;19996;-61
2024/04/16 04:42:25;;;;;;;0.88;0.70;;;22.30;45.70;;;;;;5430135;26;20014;-60
2024/04/16 04:44:51;;;;;;;1.02;0.63;;;22.30;45.70;;;;;;5431035;26;20455;-61
2024/04/16 04:47:19;;;;;;;0.88;0.50;;;22.30;45.70;;;;;;5428253;26;20565;-61
2024/04/16 04:49:45;;;;;;;0.80;0.63;;;22.30;45.70;;;;;;5430179;26;19995;-61
2024/04/16 04:52:11;;;;;;;1.17;0.73;;;22.30;45.80;;;;;;5426440;26;20103;-61
2024/04/16 04:54:36;;;;;;;1.30;0.77;;;22.30;45.80;;;;;;5427357;26;20118;-62
2024/04/16 04:57:02;;;;;;;1.00;0.70;;;22.30;45.80;;;;;;5427993;26;20063;-61
2024/04/16 04:59:28;;;;;;;1.00;0.70;;;22.30;45.80;;;;;;5426345;26;19995;-61
2024/04/16 05:01:54;;;;;;;1.10;0.65;;;22.30;45.80;;;;;;5427082;26;20528;-61
2024/04/16 05:04:20;;;;;;;0.90;0.63;;;22.30;45.80;;;;;;5427820;26;20017;-60
2024/04/16 05:06:46;;;;;;;0.70;0.52;;;22.30;45.80;;;;;;5427251;26;19992;-61
2024/04/16 05:09:12;;;;;;;1.25;0.70;;;22.30;45.90;;;;;;5430885;26;20010;-62
2024/04/16 05:11:38;;;;;;;0.93;0.60;;;22.30;45.90;;;;;;5428351;26;20014;-63
2024/04/16 05:14:07;;;;;;;1.10;0.70;;;22.30;45.90;;;;;;5427115;26;20028;-63
2024/04/16 05:16:33;;;;;;;1.20;0.70;;;22.30;46.00;;;;;;5423396;26;20071;-63
2024/04/16 05:18:58;;;;;;;0.70;0.60;;;22.30;46.00;;;;;;5431367;26;20007;-63
2024/04/16 05:21:24;;;;;;;1.25;0.65;;;22.20;45.90;;;;;;5425614;26;20031;-64
2024/04/16 05:23:50;;;;;;;0.85;0.68;;;22.20;45.90;;;;;;5423731;26;20418;-63
2024/04/16 05:26:16;;;;;;;0.80;0.60;;;22.20;45.90;;;;;;5426212;26;20039;-63
2024/04/16 05:28:42;;;;;;;1.80;1.10;;;22.30;46.00;;;;;;5428177;26;20539;-63
2024/04/16 05:31:07;;;;;;;1.60;0.70;;;22.20;46.20;;;;;;5432257;26;19995;-63
2024/04/16 05:33:33;;;;;;;1.75;0.63;;;22.20;46.50;;;;;;5427682;26;19998;-63
2024/04/16 05:35:59;;;;;;;0.85;0.63;;;22.20;45.90;;;;;;5431276;26;20071;-63
2024/04/16 05:38:25;;;;;;;0.70;0.50;;;22.20;46.00;;;;;;5430289;26;20355;-63
2024/04/16 05:40:50;;;;;;;1.48;0.70;;;22.20;45.90;;;;;;5433700;26;20010;-63
2024/04/16 05:43:16;;;;;;;1.60;0.73;;;22.20;46.00;;;;;;5430583;26;20396;-62
2024/04/16 05:45:42;;;;;;;0.98;0.70;;;22.20;46.00;;;;;;5430043;26;20007;-63
2024/04/16 05:48:07;;;;;;;0.60;0.60;;;22.20;46.00;;;;;;5425426;26;20010;-62
2024/04/16 05:50:33;;;;;;;1.25;0.70;;;22.20;46.00;;;;;;5431563;26;19994;-63
2024/04/16 05:52:59;;;;;;;1.95;0.70;;;22.20;46.00;;;;;;5431249;26;20528;-63
2024/04/16 05:55:24;;;;;;;1.13;0.68;;;22.20;46.00;;;;;;5428625;26;19995;-63
2024/04/16 05:57:50;;;;;;;1.48;0.77;;;22.20;46.00;;;;;;5425467;26;19996;-63
2024/04/16 06:00:16;;;;;;;1.10;0.60;;;22.20;46.00;;;;;;5426098;26;20143;-63
2024/04/16 06:02:41;;;;;;;1.15;0.60;;;22.20;46.10;;;;;;5427860;26;19995;-63
2024/04/16 06:05:07;;;;;;;0.63;0.60;;;22.20;46.00;;;;;;5425096;26;20126;-63
2024/04/16 06:07:33;;;;;;;1.60;0.70;;;22.20;46.00;;;;;;5425425;26;20361;-63
2024/04/16 06:09:59;;;;;;;0.88;0.70;;;22.20;46.00;;;;;;5426702;26;20003;-63
2024/04/16 06:12:24;;;;;;;1.35;0.60;;;22.20;46.00;;;;;;5443699;26;20482;-63
2024/04/16 06:14:50;;;;;;;1.50;0.70;;;22.20;45.90;;;;;;5426190;26;20019;-62
2024/04/16 06:17:15;;;;;;;1.00;0.60;;;22.20;45.90;;;;;;5428133;26;20003;-63
2024/04/16 06:19:44;;;;;;;0.88;0.60;;;22.20;45.90;;;;;;5430068;26;20003;-63
2024/04/16 06:22:10;;;;;;;1.65;0.70;;;22.10;45.90;;;;;;5431437;26;20118;-63
2024/04/16 06:24:36;;;;;;;0.95;0.70;;;22.10;45.90;;;;;;5429632;26;20423;-63
2024/04/16 06:27:02;;;;;;;1.55;0.70;;;22.10;45.90;;;;;;5428346;26;20050;-63
2024/04/16 06:29:28;;;;;;;0.95;0.70;;;22.10;45.90;;;;;;5424779;26;20574;-63
2024/04/16 06:31:53;;;;;;;1.98;0.70;;;22.10;45.90;;;;;;5431024;26;20654;-60
2024/04/16 06:34:19;;;;;;;1.45;0.80;;;22.10;45.90;;;;;;5431093;26;20440;-62
2024/04/16 06:36:44;;;;;;;1.35;0.70;;;22.10;45.90;;;;;;5431529;26;19999;-62
2024/04/16 06:39:10;;;;;;;1.00;0.70;;;22.10;45.90;;;;;;5426449;26;20069;-61
2024/04/16 06:41:36;;;;;;;1.02;0.70;;;22.10;46.00;;;;;;5432373;26;20013;-63
2024/04/16 06:44:02;;;;;;;1.02;0.63;;;22.10;46.00;;;;;;5432116;26;19998;-63
2024/04/16 06:46:27;;;;;;;0.93;0.68;;;22.10;46.00;;;;;;5423345;26;20122;-63
2024/04/16 06:48:53;;;;;;;1.27;0.70;;;22.10;46.00;;;;;;5432517;26;20018;-63
2024/04/16 06:51:19;;;;;;;1.63;0.60;;;22.10;46.00;;;;;;5433632;26;20010;-63
2024/04/16 06:53:44;;;;;;;1.58;0.60;;;22.10;46.00;;;;;;5424309;26;20045;-63
2024/04/16 06:56:10;;;;;;;1.23;0.85;;;22.10;46.00;;;;;;5430673;26;20075;-63
2024/04/16 06:58:35;;;;;;;1.70;0.75;;;22.10;46.00;;;;;;5432138;26;20018;-63
2024/04/16 07:01:02;;;;;;;1.95;0.73;;;22.10;46.00;;;;;;5428115;26;20485;-63
2024/04/16 07:03:28;;;;;;;1.23;0.70;;;22.10;46.00;;;;;;5429596;26;20289;-63
2024/04/16 07:05:54;;;;;;;1.02;0.68;;;22.00;45.90;;;;;;5428356;26;20073;-63
2024/04/16 07:08:20;;;;;;;1.05;0.70;;;22.00;45.90;;;;;;5430979;26;20002;-62
2024/04/16 07:10:46;;;;;;;1.42;0.70;;;22.00;45.90;;;;;;5429783;26;20010;-62
2024/04/16 07:13:12;;;;;;;1.75;0.70;;;22.00;45.90;;;;;;5429123;26;20014;-62
2024/04/16 07:15:38;;;;;;;1.05;0.70;;;22.00;45.80;;;;;;5427694;26;20105;-62
2024/04/16 07:18:04;;;;;;;1.23;0.80;;;22.00;45.80;;;;;;5424498;26;20064;-62
2024/04/16 07:20:30;;;;;;;1.67;0.80;;;22.00;45.80;;;;;;5427268;26;20037;-63
2024/04/16 07:22:55;;;;;;;0.88;0.60;;;22.00;45.80;;;;;;5428760;26;20077;-63
2024/04/16 07:25:21;;;;;;;1.20;0.70;;;22.00;45.80;;;;;;5427462;26;20101;-62
2024/04/16 07:27:46;;;;;;;1.00;0.60;;;22.00;45.80;;;;;;5430687;26;20329;-62
2024/04/16 07:30:13;;;;;;;0.75;0.60;;;22.00;45.80;;;;;;5425078;26;19995;-63
2024/04/16 07:32:39;;;;;;;1.02;0.70;;;22.00;45.80;;;;;;5430743;26;20027;-62
2024/04/16 07:35:05;;;;;;;0.80;0.60;;;22.00;45.80;;;;;;5429094;26;20458;-62
2024/04/16 07:37:31;;;;;;;1.05;0.70;;;22.00;45.80;;;;;;5428833;26;20005;-61
2024/04/16 07:39:57;;;;;;;0.75;0.60;;;22.00;45.80;;;;;;5429766;26;20023;-62
2024/04/16 07:42:22;;;;;;;0.90;0.70;;;22.00;45.80;;;;;;5428890;26;20035;-63
2024/04/16 07:44:48;;;;;;;0.50;0.50;;;22.00;45.80;;;;;;5424115;26;20060;-63
2024/04/16 07:47:14;;;;;;;0.70;0.60;;;22.00;45.80;;;;;;5430538;26;19995;-63
2024/04/16 07:49:39;;;;;;;1.17;0.65;;;22.00;46.30;;;;;;5425042;26;20035;-63
2024/04/16 07:52:05;;;;;;;1.05;0.60;;;22.00;45.80;;;;;;5428996;26;20008;-61
2024/04/16 07:54:31;;;;;;;0.80;0.50;;;22.00;45.80;;;;;;5425359;26;19995;-61
2024/04/16 07:56:56;;;;;;;0.80;0.60;;;22.00;45.90;;;;;;5431531;26;20010;-61
2024/04/16 07:59:22;;;;;;;0.88;0.65;;;22.00;45.90;;;;;;5427622;26;20010;-61
2024/04/16 08:01:48;;;;;;;1.00;0.52;;;22.00;46.00;;;;;;5423742;26;20453;-61
2024/04/16 08:04:13;;;;;;;1.23;0.70;;;22.00;46.00;;;;;;5429298;26;20038;-60
2024/04/16 08:06:39;;;;;;;0.80;0.68;;;22.00;46.10;;;;;;5430092;26;19995;-60
2024/04/16 08:09:05;;;;;;;1.00;0.70;;;22.00;46.10;;;;;;5427968;26;20007;-61
2024/04/16 08:11:30;;;;;;;2.00;0.80;;;22.00;46.10;;;;;;5428964;26;19999;-62
2024/04/16 08:13:56;;;;;;;1.52;0.80;;;22.00;46.10;;;;;;5426516;26;19999;-61
2024/04/16 08:16:21;;;;;;;1.38;0.70;;;22.00;46.10;;;;;;5422313;26;20285;-61
2024/04/16 08:18:47;;;;;;;1.13;0.70;;;22.00;46.20;;;;;;5430308;26;20005;-61
2024/04/16 08:21:13;;;;;;;1.10;0.70;;;22.00;46.20;;;;;;5426621;26;19996;-61
2024/04/16 08:23:39;;;;;;;1.08;0.80;;;22.00;46.20;;;;;;5422304;26;20007;-61
2024/04/16 08:26:06;;;;;;;1.27;0.70;;;22.00;46.30;;;;;;5426712;26;20439;-62
2024/04/16 08:28:32;;;;;;;1.10;0.70;;;22.00;46.30;;;;;;5426222;26;20488;-61
2024/04/16 08:30:58;;;;;;;1.63;0.70;;;22.00;46.30;;;;;;5422462;26;20003;-61
2024/04/16 08:33:24;;;;;;;1.08;0.65;;;22.00;46.30;;;;;;5426080;26;20072;-61
2024/04/16 08:35:51;;;;;;;1.20;0.68;;;22.00;46.30;;;;;;5426748;26;20566;-61
2024/04/16 08:38:18;;;;;;;0.57;0.52;;;21.90;46.30;;;;;;5430515;26;20022;-60
2024/04/16 08:40:45;;;;;;;1.67;0.80;;;22.00;46.40;;;;;;5428911;26;20040;-62
2024/04/16 08:43:11;;;;;;;1.58;0.70;;;22.00;46.40;;;;;;5424053;26;20027;-61
2024/04/16 08:45:47;;;;;;;1.77;0.80;;;22.00;46.40;;;;;;5425372;26;19999;-62
2024/04/16 08:48:12;;;;;;;1.27;0.70;;;22.00;46.40;;;;;;5427372;26;20414;-62
2024/04/16 08:50:39;;;;;;;1.17;0.65;;;22.00;46.40;;;;;;5424962;26;20081;-62
2024/04/16 08:53:05;;;;;;;1.40;0.80;;;22.00;46.40;;;;;;5428947;26;19999;-63
2024/04/16 08:55:34;;;;;;;0.70;0.55;;;22.00;46.50;;;;;;5424494;26;20026;-64
2024/04/16 08:57:59;;;;;;;1.25;0.73;;;22.00;46.40;;;;;;5425282;26;20094;-63
2024/04/16 09:00:25;;;;;;;1.00;0.70;;;22.00;46.50;;;;;;5423020;26;20011;-63
2024/04/16 09:02:51;;;;;;;1.23;0.70;;;22.00;46.50;;;;;;5428125;26;20003;-63
2024/04/16 09:05:18;;;;;;;1.27;0.80;;;22.00;46.50;;;;;;5430156;26;20376;-63
2024/04/16 09:07:44;;;;;;;0.73;0.60;;;22.00;46.40;;;;;;5427763;26;19999;-63
2024/04/16 09:10:15;;;;;;;1.63;0.85;;;22.00;46.40;;;;;;5428303;26;20317;-63
2024/04/16 09:12:43;;;;;;;1.00;0.60;;;22.00;46.50;;;;;;5430356;26;20009;-64
2024/04/16 09:15:11;;;;;;;1.42;0.57;;;22.00;46.40;;;;;;5426917;26;20002;-63
2024/04/16 09:17:45;;;;;;;1.25;0.70;;;22.00;46.50;;;;;;5425210;26;20007;-63
2024/04/16 09:20:16;;;;;;;0.85;0.60;;;22.00;46.50;;;;;;5426627;26;20332;-63
2024/04/16 09:22:42;;;;;;;1.05;0.60;;;22.00;46.50;;;;;;5432690;26;20354;-63
2024/04/16 09:25:08;;;;;;;1.48;0.80;;;21.90;46.40;;;;;;5430804;26;20311;-64
2024/04/16 09:27:34;;;;;;;1.27;0.70;;;21.90;46.40;;;;;;5431488;26;20457;-63
2024/04/16 09:30:12;;;;;;;0.75;0.60;;;21.90;46.50;;;;;;5430073;26;20004;-64
2024/04/16 09:32:39;;;;;;;1.10;0.60;;;21.90;46.50;;;;;;5429705;26;20048;-64
2024/04/16 09:35:05;;;;;;;1.73;0.70;;;21.90;46.50;;;;;;5428649;26;20014;-63
2024/04/16 09:37:31;;;;;;;1.33;0.60;;;21.90;46.40;;;;;;5426664;26;20007;-63
2024/04/16 09:39:59;;;;;;;0.77;0.52;;;21.90;46.50;;;;;;5430625;26;20481;-63
2024/04/16 09:42:30;;;;;;;0.82;0.60;;;21.90;46.40;;;;;;5426975;26;20050;-64
2024/04/16 09:44:57;;;;;;;0.60;0.60;;;21.90;46.50;;;;;;5431478;26;20014;-63
2024/04/16 09:47:24;;;;;;;0.95;0.70;;;21.90;46.40;;;;;;5426254;26;20002;-63
2024/04/16 09:49:54;;;;;;;0.82;0.70;;;21.90;46.40;;;;;;5428894;26;20003;-63
2024/04/16 09:52:20;;;;;;;;;;;21.90;46.50;;;;;;5433574;26;20003;-62
2024/04/16 09:54:48;;;;;;;1.08;0.68;;;21.90;46.50;;;;;;5431970;26;19932;-62
2024/04/16 09:57:15;;;;;;;1.40;0.80;;;21.90;46.50;;;;;;5431105;26;19998;-61
2024/04/16 09:59:41;;;;;;;0.73;0.60;;;21.90;46.50;;;;;;5430301;26;20430;-61
2024/04/16 10:02:09;;;;;;;1.92;0.77;;;21.90;46.50;;;;;;5430364;26;20442;-64
2024/04/16 10:04:35;;;;;;;0.77;0.65;;;21.90;46.50;;;;;;5428301;26;19999;-64
2024/04/16 10:07:03;;;;;;;2.35;0.60;;;21.90;46.40;;;;;;5425362;26;20013;-63
2024/04/16 10:09:32;;;;;;;1.02;0.65;;;21.90;47.00;;;;;;5428426;26;20036;-63
2024/04/16 10:11:59;;;;;;;1.48;0.60;;;21.90;46.50;;;;;;5433953;26;20003;-63
2024/04/16 10:14:25;;;;;;;0.70;0.52;;;21.90;46.40;;;;;;5427911;26;20366;-63
2024/04/16 10:16:53;;;;;;;0.82;0.60;;;21.90;46.40;;;;;;5427821;26;20043;-64
2024/04/16 10:19:18;;;;;;;0.88;0.60;;;21.90;46.40;;;;;;5428909;26;19999;-63
2024/04/16 10:21:49;;;;;;;0.98;0.60;;;21.90;46.50;;;;;;5424713;26;20010;-63
2024/04/16 10:24:19;;;;;;;0.82;0.60;;;21.90;46.50;;;;;;5425493;26;19999;-63
2024/04/16 10:26:47;;;;;;;1.60;0.70;;;21.90;46.40;;;;;;5426285;26;20006;-63
2024/04/16 10:29:17;;;;;;;0.98;0.70;;;21.80;46.40;;;;;;5432522;26;20006;-63
2024/04/16 10:31:49;;;;;;;1.10;0.60;;;21.90;46.50;;;;;;5428188;26;20079;-63
2024/04/16 10:34:26;;;;;;;1.13;0.70;;;21.80;46.40;;;;;;5425299;26;20003;-63
2024/04/16 10:36:52;;;;;;;1.17;0.70;;;21.80;46.40;;;;;;5424483;26;20098;-63
2024/04/16 10:39:18;;;;;;;1.90;0.80;;;21.80;46.40;;;;;;5431340;26;20084;-63
2024/04/16 10:41:55;;;;;;;0.90;0.60;;;21.80;46.40;;;;;;5430321;26;20527;-63
2024/04/16 10:44:21;;;;;;;1.42;0.60;;;21.80;46.40;;;;;;5428473;26;19999;-64
2024/04/16 10:46:51;;;;;;;1.00;0.60;;;21.80;46.30;;;;;;5426447;26;20433;-64
2024/04/16 10:49:18;;;;;;;1.30;0.70;;;21.90;46.40;;;;;;5429367;26;20014;-63
2024/04/16 10:51:44;;;;;;;0.73;0.63;;;21.80;46.30;;;;;;5428394;26;20066;-63
2024/04/16 10:54:11;;;;;;;1.10;0.57;;;21.80;46.80;;;;;;5426910;26;20480;-63
2024/04/16 10:56:37;;;;;;;0.90;0.70;;;21.80;46.40;;;;;;5426972;26;20050;-63
2024/04/16 10:59:07;;;;;;;1.10;0.70;;;21.80;46.30;;;;;;5429657;26;20582;-63
2024/04/16 11:01:33;;;;;;;0.85;0.70;;;21.80;46.30;;;;;;5426268;26;20451;-62
2024/04/16 11:04:18;;;;;;;1.20;0.70;;;21.80;46.30;;;;;;5431553;26;20109;-63
2024/04/16 11:06:45;;;;;;;0.93;0.63;;;21.80;46.20;;;;;;5430814;26;20393;-63
2024/04/16 11:09:12;;;;;;;1.15;0.70;;;21.80;46.30;;;;;;5430336;26;20003;-63
2024/04/16 11:11:39;;;;;;;0.80;0.60;;;21.80;46.30;;;;;;5431287;26;20444;-61
2024/04/16 11:14:08;;;;;;;0.90;0.60;;;21.80;46.20;;;;;;5430107;26;20003;-62
2024/04/16 11:16:34;;;;;;;0.75;0.50;;;21.80;46.80;;;;;;5424010;26;20011;-61
2024/04/16 11:19:01;;;;;;;1.08;0.50;;;21.80;46.20;;;;;;5429477;26;20073;-62
2024/04/16 11:21:32;;;;;;;0.68;0.52;;;21.80;46.30;;;;;;5430085;26;20057;-62
2024/04/16 11:23:58;;;;;;;1.38;0.70;;;21.80;46.30;;;;;;5427091;26;20005;-60
2024/04/16 11:26:24;;;;;;;0.55;0.50;;;21.80;46.20;;;;;;5428141;26;20014;-60
2024/04/16 11:28:50;;;;;;;0.68;0.50;;;21.80;46.20;;;;;;5434444;26;20469;-61
2024/04/16 11:31:19;;;;;;;0.85;0.60;;;21.80;46.20;;;;;;5429450;26;20019;-61
2024/04/16 11:33:44;;;;;;;0.67;0.60;;;21.80;46.20;;;;;;5423752;26;20003;-61
2024/04/16 11:36:10;;;;;;;1.00;0.60;;;21.80;46.20;;;;;;5427109;26;20393;-60
2024/04/16 11:38:38;;;;;;;0.73;0.55;;;21.80;46.20;;;;;;5442336;26;20031;-61
2024/04/16 11:41:04;;;;;;;0.60;0.50;;;21.80;46.20;;;;;;5426498;26;19999;-61
2024/04/16 11:43:31;;;;;;;0.85;0.50;;;21.80;46.70;;;;;;5424601;26;20006;-61
2024/04/16 11:45:56;;;;;;;0.70;0.60;;;21.80;46.10;;;;;;5431598;26;20011;-61
2024/04/16 11:48:22;;;;;;;0.93;0.60;;;21.80;46.10;;;;;;5425199;26;20072;-61
2024/04/16 11:50:48;;;;;;;1.70;0.63;;;21.80;46.10;;;;;;5425522;26;20517;-60
2024/04/16 11:53:14;;;;;;;0.60;0.50;;;21.80;46.00;;;;;;5425275;26;19995;-61
2024/04/16 11:55:39;;;;;;;0.90;0.60;;;21.90;46.60;;;;;;5425213;26;19995;-61
2024/04/16 11:58:07;;;;;;;0.57;0.55;;;21.80;46.00;;;;;;5424221;26;20121;-60
2024/04/16 12:00:33;;;;;;;0.85;0.60;;;21.80;46.00;;;;;;5424670;26;20015;-60
2024/04/16 12:03:01;;;;;;;0.70;0.60;;;21.80;46.00;;;;;;5419460;26;19999;-62
2024/04/16 12:05:27;;;;;;;1.35;0.65;;;21.80;46.00;;;;;;5427196;26;20479;-61
2024/04/16 12:07:53;;;;;;;0.93;0.50;;;21.80;46.00;;;;;;5431256;26;20010;-62
2024/04/16 12:10:18;;;;;;;0.65;0.50;;;21.80;46.00;;;;;;5426110;26;20077;-61
2024/04/16 12:12:44;;;;;;;0.60;0.60;;;21.80;45.90;;;;;;5428932;26;20452;-61
2024/04/16 12:15:10;;;;;;;1.15;0.52;;;21.80;45.90;;;;;;5425204;26;20330;-61
2024/04/16 12:17:35;;;;;;;1.67;0.50;;;21.80;45.90;;;;;;5419930;26;20050;-60
2024/04/16 12:20:01;;;;;;;0.80;0.50;;;21.80;45.90;;;;;;5428871;26;20003;-61
2024/04/16 12:22:27;;;;;;;0.60;0.57;;;21.80;45.90;;;;;;5430184;26;20003;-62
2024/04/16 12:24:52;;;;;;;0.73;0.57;;;21.80;45.90;;;;;;5431229;26;20003;-63
2024/04/16 12:27:20;;;;;;;0.95;0.55;;;21.80;45.90;;;;;;5425146;26;20018;-62
2024/04/16 12:29:46;;;;;;;0.82;0.50;;;21.80;45.90;;;;;;5431192;26;20023;-62
2024/04/16 12:32:12;;;;;;;0.90;0.60;;;21.80;45.90;;;;;;5424139;26;20445;-61
2024/04/16 12:34:38;;;;;;;1.00;0.60;;;21.80;45.90;;;;;;5423802;26;20003;-62
2024/04/16 12:37:03;;;;;;;0.82;0.60;;;21.80;45.90;;;;;;5426209;26;20066;-61
2024/04/16 12:39:29;;;;;;;0.90;0.60;;;21.80;45.90;;;;;;5432342;26;20002;-61
2024/04/16 12:41:59;;;;;;;0.80;0.50;;;21.80;45.90;;;;;;5433395;26;20030;-61
2024/04/16 12:44:25;;;;;;;0.63;0.52;;;21.80;45.90;;;;;;5431318;26;19996;-61